Walloomsac, New York
Current Conditions -  °F | °C
As of 10:54 AM on Saturday 22 Nov 2014 (Local Time) from KDDH Reporting Station
Clear Clear  
Wind Chill: 33°   Ceiling: Unl
Heat Index: 33°   Visibility: 10mi
Dew Point:   Wind: 3mph
Humidity: 35%   Direction: NA
Pressure: 30.25"   Gusts: NA
Location:  42.8782°N, 73.3625°W
Report Text: KDDH 221554Z AUTO VRB03KT 10SM CLR 01/M13 A3025 RMK AO2 SLP255 T00061133
Loading
Personal Weather Stations






























Interactive Weather Map New forecast layout! Learn more

10-Day Weather Forecast

Advertisements
Track Severe Weather on mobile